sensor_id;sensor_type;location;lat;lon;timestamp;pressure;altitude;pressure_sealevel;temperature;humidity
32324;BME280;25666;44.350;9.222;2022-10-13T00:02:14;102141.22;;;15.45;100.00
32324;BME280;25666;44.350;9.222;2022-10-13T00:04:39;102135.28;;;15.47;100.00
32324;BME280;25666;44.350;9.222;2022-10-13T00:07:05;102127.94;;;15.54;100.00
32324;BME280;25666;44.350;9.222;2022-10-13T00:09:31;102129.31;;;15.48;100.00
32324;BME280;25666;44.350;9.222;2022-10-13T00:11:56;102121.44;;;15.42;100.00
32324;BME280;25666;44.350;9.222;2022-10-13T00:14:22;102124.00;;;15.35;100.00
32324;BME280;25666;44.350;9.222;2022-10-13T00:16:47;102126.63;;;15.52;100.00
32324;BME280;25666;44.350;9.222;2022-10-13T00:19:13;102112.28;;;15.53;100.00
32324;BME280;25666;44.350;9.222;2022-10-13T00:21:39;102116.25;;;15.52;100.00
32324;BME280;25666;44.350;9.222;2022-10-13T00:24:04;102132.28;;;15.19;100.00
32324;BME280;25666;44.350;9.222;2022-10-13T00:26:30;102134.78;;;15.33;100.00
32324;BME280;25666;44.350;9.222;2022-10-13T00:28:55;102131.13;;;15.20;100.00
32324;BME280;25666;44.350;9.222;2022-10-13T00:31:24;102141.75;;;15.15;100.00
32324;BME280;25666;44.350;9.222;2022-10-13T00:33:51;102140.59;;;15.16;100.00
32324;BME280;25666;44.350;9.222;2022-10-13T00:36:20;102139.41;;;15.17;100.00
32324;BME280;25666;44.350;9.222;2022-10-13T00:38:46;102137.09;;;15.19;100.00
32324;BME280;25666;44.350;9.222;2022-10-13T00:41:11;102136.63;;;15.29;100.00
32324;BME280;25666;44.350;9.222;2022-10-13T00:43:54;102132.09;;;15.36;100.00
32324;BME280;25666;44.350;9.222;2022-10-13T00:46:22;102124.63;;;15.40;100.00
32324;BME280;25666;44.350;9.222;2022-10-13T00:48:56;102122.41;;;15.46;100.00
32324;BME280;25666;44.350;9.222;2022-10-13T00:51:25;102119.81;;;15.29;100.00
32324;BME280;25666;44.350;9.222;2022-10-13T00:53:54;102123.22;;;15.22;100.00
32324;BME280;25666;44.350;9.222;2022-10-13T00:56:22;102120.28;;;15.19;100.00
32324;BME280;25666;44.350;9.222;2022-10-13T00:58:48;102118.88;;;15.25;100.00
32324;BME280;25666;44.350;9.222;2022-10-13T01:01:14;102120.16;;;15.15;100.00
32324;BME280;25666;44.350;9.222;2022-10-13T01:03:40;102113.59;;;15.11;100.00
32324;BME280;25666;44.350;9.222;2022-10-13T01:06:06;102113.97;;;15.22;100.00
32324;BME280;25666;44.350;9.222;2022-10-13T01:08:33;102108.59;;;15.29;100.00
32324;BME280;25666;44.350;9.222;2022-10-13T01:14:05;102097.84;;;15.19;100.00
32324;BME280;25666;44.350;9.222;2022-10-13T01:24:42;102092.44;;;15.14;100.00
32324;BME280;25666;44.350;9.222;2022-10-13T01:33:04;102094.28;;;14.97;100.00
32324;BME280;25666;44.350;9.222;2022-10-13T01:41:26;102078.06;;;15.03;100.00
32324;BME280;25666;44.350;9.222;2022-10-13T01:43:59;102069.53;;;15.12;100.00
32324;BME280;25666;44.350;9.222;2022-10-13T01:46:28;102071.84;;;14.97;100.00
32324;BME280;25666;44.350;9.222;2022-10-13T01:48:57;102066.72;;;14.99;100.00
32324;BME280;25666;44.350;9.222;2022-10-13T01:51:24;102067.06;;;14.98;100.00
32324;BME280;25666;44.350;9.222;2022-10-13T01:53:52;102065.88;;;14.87;100.00
32324;BME280;25666;44.350;9.222;2022-10-13T01:56:17;102070.09;;;14.93;100.00
32324;BME280;25666;44.350;9.222;2022-10-13T01:58:46;102076.91;;;14.59;100.00
32324;BME280;25666;44.350;9.222;2022-10-13T02:06:30;102076.25;;;14.74;100.00
32324;BME280;25666;44.350;9.222;2022-10-13T02:09:02;102058.88;;;14.81;100.00
32324;BME280;25666;44.350;9.222;2022-10-13T02:11:29;102062.25;;;14.86;100.00
32324;BME280;25666;44.350;9.222;2022-10-13T02:14:06;102066.47;;;14.80;100.00
32324;BME280;25666;44.350;9.222;2022-10-13T02:16:39;102074.56;;;14.61;100.00
32324;BME280;25666;44.350;9.222;2022-10-13T02:19:07;102075.75;;;14.72;100.00
32324;BME280;25666;44.350;9.222;2022-10-13T02:21:34;102070.66;;;14.74;100.00
32324;BME280;25666;44.350;9.222;2022-10-13T02:24:02;102071.47;;;14.75;100.00
32324;BME280;25666;44.350;9.222;2022-10-13T02:26:29;102061.88;;;14.76;100.00
32324;BME280;25666;44.350;9.222;2022-10-13T02:29:08;102056.28;;;14.88;100.00
32324;BME280;25666;44.350;9.222;2022-10-13T02:31:34;102056.28;;;14.88;100.00
32324;BME280;25666;44.350;9.222;2022-10-13T02:33:59;102051.03;;;14.86;100.00
32324;BME280;25666;44.350;9.222;2022-10-13T02:36:25;102062.00;;;14.79;100.00
32324;BME280;25666;44.350;9.222;2022-10-13T02:38:50;102056.19;;;14.84;100.00
32324;BME280;25666;44.350;9.222;2022-10-13T02:41:16;102066.06;;;14.70;100.00
32324;BME280;25666;44.350;9.222;2022-10-13T02:43:41;102063.75;;;14.72;100.00
32324;BME280;25666;44.350;9.222;2022-10-13T02:46:07;102056.50;;;14.71;100.00
32324;BME280;25666;44.350;9.222;2022-10-13T02:48:32;102061.13;;;14.55;100.00
32324;BME280;25666;44.350;9.222;2022-10-13T02:50:58;102058.03;;;14.68;100.00
32324;BME280;25666;44.350;9.222;2022-10-13T02:53:23;102051.84;;;14.75;100.00
32324;BME280;25666;44.350;9.222;2022-10-13T02:55:49;102055.09;;;14.65;100.00
32324;BME280;25666;44.350;9.222;2022-10-13T02:58:14;102048.06;;;14.59;100.00
32324;BME280;25666;44.350;9.222;2022-10-13T03:00:40;102053.66;;;14.59;100.00
32324;BME280;25666;44.350;9.222;2022-10-13T03:03:05;102054.56;;;14.51;100.00
32324;BME280;25666;44.350;9.222;2022-10-13T03:05:31;102051.84;;;14.42;100.00
32324;BME280;25666;44.350;9.222;2022-10-13T03:07:56;102052.25;;;14.53;100.00
32324;BME280;25666;44.350;9.222;2022-10-13T03:10:22;102053.84;;;14.41;100.00
32324;BME280;25666;44.350;9.222;2022-10-13T03:12:50;102055.06;;;14.53;100.00
32324;BME280;25666;44.350;9.222;2022-10-13T03:15:15;102053.66;;;14.59;100.00
32324;BME280;25666;44.350;9.222;2022-10-13T03:17:41;102059.41;;;14.62;100.00
32324;BME280;25666;44.350;9.222;2022-10-13T03:20:07;102061.81;;;14.52;100.00
32324;BME280;25666;44.350;9.222;2022-10-13T03:22:33;102067.66;;;14.46;100.00
32324;BME280;25666;44.350;9.222;2022-10-13T03:24:58;102073.97;;;14.56;100.00
32324;BME280;25666;44.350;9.222;2022-10-13T03:27:24;102058.78;;;14.57;100.00
32324;BME280;25666;44.350;9.222;2022-10-13T03:29:49;102061.66;;;14.69;100.00
32324;BME280;25666;44.350;9.222;2022-10-13T03:32:15;102057.31;;;14.71;100.00
32324;BME280;25666;44.350;9.222;2022-10-13T03:34:41;102062.81;;;14.68;100.00
32324;BME280;25666;44.350;9.222;2022-10-13T03:37:07;102061.28;;;14.70;100.00
32324;BME280;25666;44.350;9.222;2022-10-13T03:39:39;102063.13;;;14.66;100.00
32324;BME280;25666;44.350;9.222;2022-10-13T03:42:07;102061.50;;;14.65;100.00
32324;BME280;25666;44.350;9.222;2022-10-13T03:44:33;102064.44;;;14.69;100.00
32324;BME280;25666;44.350;9.222;2022-10-13T03:46:59;102065.94;;;14.66;100.00
32324;BME280;25666;44.350;9.222;2022-10-13T03:49:24;102065.34;;;14.61;100.00
32324;BME280;25666;44.350;9.222;2022-10-13T03:51:50;102065.78;;;14.51;100.00
32324;BME280;25666;44.350;9.222;2022-10-13T03:54:16;102061.72;;;14.60;100.00
32324;BME280;25666;44.350;9.222;2022-10-13T03:56:43;102057.44;;;14.63;100.00
32324;BME280;25666;44.350;9.222;2022-10-13T03:59:10;102062.94;;;14.71;100.00
32324;BME280;25666;44.350;9.222;2022-10-13T04:01:36;102051.47;;;14.64;100.00
32324;BME280;25666;44.350;9.222;2022-10-13T04:04:02;102058.00;;;14.56;100.00
32324;BME280;25666;44.350;9.222;2022-10-13T04:06:28;102057.69;;;14.37;100.00
32324;BME280;25666;44.350;9.222;2022-10-13T04:08:54;102056.66;;;14.54;100.00
32324;BME280;25666;44.350;9.222;2022-10-13T04:11:20;102049.91;;;14.55;100.00
32324;BME280;25666;44.350;9.222;2022-10-13T04:13:50;102044.00;;;14.35;100.00
32324;BME280;25666;44.350;9.222;2022-10-13T04:16:18;102044.84;;;14.36;100.00
32324;BME280;25666;44.350;9.222;2022-10-13T04:18:48;102045.91;;;14.43;100.00
32324;BME280;25666;44.350;9.222;2022-10-13T04:21:14;102044.59;;;14.41;100.00
32324;BME280;25666;44.350;9.222;2022-10-13T04:23:40;102034.22;;;14.41;100.00
32324;BME280;25666;44.350;9.222;2022-10-13T04:26:06;102029.19;;;14.35;100.00
32324;BME280;25666;44.350;9.222;2022-10-13T04:28:32;102029.84;;;14.32;100.00
32324;BME280;25666;44.350;9.222;2022-10-13T04:31:01;102034.97;;;14.30;100.00
32324;BME280;25666;44.350;9.222;2022-10-13T04:33:27;102028.63;;;14.21;100.00
32324;BME280;25666;44.350;9.222;2022-10-13T04:35:52;102015.78;;;14.20;100.00
32324;BME280;25666;44.350;9.222;2022-10-13T04:38:18;102026.84;;;14.16;100.00
32324;BME280;25666;44.350;9.222;2022-10-13T04:40:43;102025.38;;;14.19;100.00
32324;BME280;25666;44.350;9.222;2022-10-13T04:43:09;102030.47;;;14.17;100.00
32324;BME280;25666;44.350;9.222;2022-10-13T04:45:34;102031.16;;;14.14;100.00
32324;BME280;25666;44.350;9.222;2022-10-13T04:48:00;102027.41;;;14.10;100.00
32324;BME280;25666;44.350;9.222;2022-10-13T04:50:25;102033.50;;;14.12;100.00
32324;BME280;25666;44.350;9.222;2022-10-13T04:52:58;102027.91;;;14.12;100.00
32324;BME280;25666;44.350;9.222;2022-10-13T04:55:23;102024.38;;;14.03;100.00
32324;BME280;25666;44.350;9.222;2022-10-13T04:57:49;102019.00;;;14.10;100.00
32324;BME280;25666;44.350;9.222;2022-10-13T05:00:15;102012.84;;;14.16;100.00
32324;BME280;25666;44.350;9.222;2022-10-13T05:02:41;102008.16;;;14.08;100.00
32324;BME280;25666;44.350;9.222;2022-10-13T05:05:06;102008.91;;;14.17;100.00
32324;BME280;25666;44.350;9.222;2022-10-13T05:07:32;102008.63;;;14.10;100.00
32324;BME280;25666;44.350;9.222;2022-10-13T05:09:58;102014.59;;;13.88;100.00
32324;BME280;25666;44.350;9.222;2022-10-13T05:12:23;102014.78;;;14.04;100.00
32324;BME280;25666;44.350;9.222;2022-10-13T05:14:49;102018.69;;;14.11;100.00
32324;BME280;25666;44.350;9.222;2022-10-13T05:17:15;102022.09;;;14.17;100.00
32324;BME280;25666;44.350;9.222;2022-10-13T05:19:40;102027.41;;;14.10;100.00
32324;BME280;25666;44.350;9.222;2022-10-13T05:22:06;102029.69;;;13.95;100.00
32324;BME280;25666;44.350;9.222;2022-10-13T05:24:31;102025.97;;;14.04;100.00
32324;BME280;25666;44.350;9.222;2022-10-13T05:27:08;102029.88;;;14.11;100.00
32324;BME280;25666;44.350;9.222;2022-10-13T05:29:34;102039.09;;;13.91;100.00
32324;BME280;25666;44.350;9.222;2022-10-13T05:32:00;102040.13;;;13.86;100.00
32324;BME280;25666;44.350;9.222;2022-10-13T05:34:25;102048.00;;;13.93;100.00
32324;BME280;25666;44.350;9.222;2022-10-13T05:36:51;102036.38;;;14.03;100.00
32324;BME280;25666;44.350;9.222;2022-10-13T05:39:16;102038.97;;;14.08;100.00
32324;BME280;25666;44.350;9.222;2022-10-13T05:41:42;102036.78;;;13.93;100.00
32324;BME280;25666;44.350;9.222;2022-10-13T05:44:11;102038.09;;;13.95;100.00
32324;BME280;25666;44.350;9.222;2022-10-13T05:46:43;102039.66;;;14.05;100.00
32324;BME280;25666;44.350;9.222;2022-10-13T05:49:09;102038.38;;;14.03;100.00
32324;BME280;25666;44.350;9.222;2022-10-13T05:51:49;102037.00;;;14.09;100.00
32324;BME280;25666;44.350;9.222;2022-10-13T05:54:43;102045.78;;;14.19;100.00
32324;BME280;25666;44.350;9.222;2022-10-13T05:57:16;102041.81;;;14.20;100.00
32324;BME280;25666;44.350;9.222;2022-10-13T05:59:47;102042.97;;;14.19;100.00
32324;BME280;25666;44.350;9.222;2022-10-13T06:02:14;102038.06;;;14.16;100.00
32324;BME280;25666;44.350;9.222;2022-10-13T06:04:46;102037.25;;;14.36;100.00
32324;BME280;25666;44.350;9.222;2022-10-13T06:07:13;102043.81;;;14.40;100.00
32324;BME280;25666;44.350;9.222;2022-10-13T06:09:40;102049.34;;;14.61;100.00
32324;BME280;25666;44.350;9.222;2022-10-13T06:12:07;102056.97;;;14.85;100.00
32324;BME280;25666;44.350;9.222;2022-10-13T06:14:33;102053.25;;;14.81;100.00
32324;BME280;25666;44.350;9.222;2022-10-13T06:17:02;102050.25;;;14.98;100.00
32324;BME280;25666;44.350;9.222;2022-10-13T06:19:27;102056.47;;;15.16;100.00
32324;BME280;25666;44.350;9.222;2022-10-13T06:21:53;102054.69;;;14.99;100.00
32324;BME280;25666;44.350;9.222;2022-10-13T06:24:18;102056.41;;;14.91;100.00
32324;BME280;25666;44.350;9.222;2022-10-13T06:26:44;102049.47;;;15.10;100.00
32324;BME280;25666;44.350;9.222;2022-10-13T06:29:09;102049.09;;;15.23;100.00
32324;BME280;25666;44.350;9.222;2022-10-13T06:31:35;102046.19;;;15.44;100.00
32324;BME280;25666;44.350;9.222;2022-10-13T06:34:01;102044.31;;;15.48;100.00
32324;BME280;25666;44.350;9.222;2022-10-13T06:36:26;102046.28;;;15.35;100.00
32324;BME280;25666;44.350;9.222;2022-10-13T06:38:52;102046.41;;;15.27;100.00
32324;BME280;25666;44.350;9.222;2022-10-13T06:41:19;102043.97;;;15.37;100.00
32324;BME280;25666;44.350;9.222;2022-10-13T06:43:45;102048.38;;;15.26;100.00
32324;BME280;25666;44.350;9.222;2022-10-13T06:46:10;102043.03;;;15.33;100.00
32324;BME280;25666;44.350;9.222;2022-10-13T06:48:36;102040.69;;;15.47;100.00
32324;BME280;25666;44.350;9.222;2022-10-13T06:51:03;102041.84;;;15.46;100.00
32324;BME280;25666;44.350;9.222;2022-10-13T06:53:29;102047.47;;;15.46;100.00
32324;BME280;25666;44.350;9.222;2022-10-13T06:55:56;102050.50;;;15.41;100.00
32324;BME280;25666;44.350;9.222;2022-10-13T06:58:22;102051.09;;;15.47;100.00
32324;BME280;25666;44.350;9.222;2022-10-13T07:00:47;102055.88;;;15.46;100.00
32324;BME280;25666;44.350;9.222;2022-10-13T07:03:14;102058.25;;;15.57;100.00
32324;BME280;25666;44.350;9.222;2022-10-13T07:05:40;102063.47;;;15.70;100.00
32324;BME280;25666;44.350;9.222;2022-10-13T07:08:05;102055.75;;;15.67;100.00
32324;BME280;25666;44.350;9.222;2022-10-13T07:10:31;102057.84;;;15.82;100.00
32324;BME280;25666;44.350;9.222;2022-10-13T07:12:56;102053.28;;;15.90;100.00
32324;BME280;25666;44.350;9.222;2022-10-13T07:15:22;102061.53;;;15.98;100.00
32324;BME280;25666;44.350;9.222;2022-10-13T07:17:50;102054.75;;;15.99;100.00
32324;BME280;25666;44.350;9.222;2022-10-13T07:20:18;102057.41;;;16.08;100.00
32324;BME280;25666;44.350;9.222;2022-10-13T07:22:44;102059.03;;;16.21;100.00
32324;BME280;25666;44.350;9.222;2022-10-13T07:25:10;102059.78;;;16.34;100.00
32324;BME280;25666;44.350;9.222;2022-10-13T07:27:35;102052.38;;;16.41;100.00
32324;BME280;25666;44.350;9.222;2022-10-13T07:30:03;102055.75;;;16.47;100.00
32324;BME280;25666;44.350;9.222;2022-10-13T07:32:30;102048.34;;;16.54;100.00
32324;BME280;25666;44.350;9.222;2022-10-13T07:34:56;102046.91;;;16.60;100.00
32324;BME280;25666;44.350;9.222;2022-10-13T07:37:21;102043.59;;;16.71;100.00
32324;BME280;25666;44.350;9.222;2022-10-13T07:39:47;102045.78;;;16.77;100.00
32324;BME280;25666;44.350;9.222;2022-10-13T07:42:12;102040.34;;;16.84;100.00
32324;BME280;25666;44.350;9.222;2022-10-13T07:44:38;102048.25;;;16.94;100.00
32324;BME280;25666;44.350;9.222;2022-10-13T07:47:03;102040.06;;;17.05;100.00
32324;BME280;25666;44.350;9.222;2022-10-13T07:49:29;102046.81;;;17.16;100.00
32324;BME280;25666;44.350;9.222;2022-10-13T07:51:55;102048.59;;;17.24;100.00
32324;BME280;25666;44.350;9.222;2022-10-13T07:54:20;102038.34;;;17.32;100.00
32324;BME280;25666;44.350;9.222;2022-10-13T07:56:50;102029.25;;;17.38;100.00
32324;BME280;25666;44.350;9.222;2022-10-13T07:59:15;102040.03;;;17.52;100.00
32324;BME280;25666;44.350;9.222;2022-10-13T08:01:41;102041.38;;;17.74;100.00
32324;BME280;25666;44.350;9.222;2022-10-13T08:04:06;102044.88;;;17.86;100.00
32324;BME280;25666;44.350;9.222;2022-10-13T08:06:32;102045.38;;;17.92;100.00
32324;BME280;25666;44.350;9.222;2022-10-13T08:09:00;102040.31;;;17.97;100.00
32324;BME280;25666;44.350;9.222;2022-10-13T08:11:26;102045.78;;;17.90;100.00
32324;BME280;25666;44.350;9.222;2022-10-13T08:13:52;102045.13;;;17.97;100.00
32324;BME280;25666;44.350;9.222;2022-10-13T08:16:21;102044.31;;;18.15;100.00
32324;BME280;25666;44.350;9.222;2022-10-13T08:18:47;102049.56;;;18.36;100.00
32324;BME280;25666;44.350;9.222;2022-10-13T08:21:15;102044.16;;;18.47;100.00
32324;BME280;25666;44.350;9.222;2022-10-13T08:23:42;102046.34;;;18.53;100.00
32324;BME280;25666;44.350;9.222;2022-10-13T08:26:18;102053.72;;;18.42;100.00
32324;BME280;25666;44.350;9.222;2022-10-13T08:28:44;102050.16;;;18.64;100.00
32324;BME280;25666;44.350;9.222;2022-10-13T08:31:10;102053.06;;;18.68;100.00
32324;BME280;25666;44.350;9.222;2022-10-13T08:33:35;102045.22;;;18.81;100.00
32324;BME280;25666;44.350;9.222;2022-10-13T08:36:04;102040.41;;;19.04;100.00
32324;BME280;25666;44.350;9.222;2022-10-13T08:38:30;102028.47;;;19.14;100.00
32324;BME280;25666;44.350;9.222;2022-10-13T08:40:55;102036.81;;;19.30;100.00
32324;BME280;25666;44.350;9.222;2022-10-13T08:43:22;102032.53;;;19.39;100.00
32324;BME280;25666;44.350;9.222;2022-10-13T08:45:50;102029.84;;;19.46;100.00
32324;BME280;25666;44.350;9.222;2022-10-13T08:48:22;102029.47;;;19.48;100.00
32324;BME280;25666;44.350;9.222;2022-10-13T08:50:51;102033.56;;;19.27;100.00
32324;BME280;25666;44.350;9.222;2022-10-13T08:53:31;102032.03;;;19.07;100.00
32324;BME280;25666;44.350;9.222;2022-10-13T08:56:01;102021.09;;;19.06;100.00
32324;BME280;25666;44.350;9.222;2022-10-13T08:58:32;102022.72;;;19.07;100.00
32324;BME280;25666;44.350;9.222;2022-10-13T09:06:23;102020.25;;;19.28;100.00
32324;BME280;25666;44.350;9.222;2022-10-13T09:09:13;102011.84;;;19.32;100.00
32324;BME280;25666;44.350;9.222;2022-10-13T09:11:43;102015.91;;;19.34;100.00
32324;BME280;25666;44.350;9.222;2022-10-13T09:14:11;102019.84;;;19.30;100.00
32324;BME280;25666;44.350;9.222;2022-10-13T09:16:43;102020.56;;;19.46;100.00
32324;BME280;25666;44.350;9.222;2022-10-13T09:19:29;102024.84;;;19.62;100.00
32324;BME280;25666;44.350;9.222;2022-10-13T09:22:12;102027.78;;;19.69;100.00
32324;BME280;25666;44.350;9.222;2022-10-13T09:24:38;102026.25;;;19.75;100.00
32324;BME280;25666;44.350;9.222;2022-10-13T09:27:15;102026.88;;;19.92;100.00
32324;BME280;25666;44.350;9.222;2022-10-13T09:29:42;102030.19;;;19.97;100.00
32324;BME280;25666;44.350;9.222;2022-10-13T09:32:20;102025.06;;;20.06;100.00
32324;BME280;25666;44.350;9.222;2022-10-13T09:34:48;102020.19;;;20.03;100.00
32324;BME280;25666;44.350;9.222;2022-10-13T09:37:20;102011.22;;;20.27;100.00
32324;BME280;25666;44.350;9.222;2022-10-13T09:39:59;102003.31;;;20.44;100.00
32324;BME280;25666;44.350;9.222;2022-10-13T09:42:28;102010.75;;;20.59;100.00
32324;BME280;25666;44.350;9.222;2022-10-13T09:45:01;102003.09;;;20.59;100.00
32324;BME280;25666;44.350;9.222;2022-10-13T09:47:36;101993.00;;;20.62;100.00
32324;BME280;25666;44.350;9.222;2022-10-13T09:50:26;101989.84;;;20.67;100.00
32324;BME280;25666;44.350;9.222;2022-10-13T09:52:52;101991.88;;;20.70;100.00
32324;BME280;25666;44.350;9.222;2022-10-13T09:55:31;101993.84;;;20.66;100.00
32324;BME280;25666;44.350;9.222;2022-10-13T09:58:25;101989.84;;;20.67;100.00
32324;BME280;25666;44.350;9.222;2022-10-13T10:00:53;101995.91;;;20.69;100.00
32324;BME280;25666;44.350;9.222;2022-10-13T10:03:26;101998.31;;;20.67;100.00
32324;BME280;25666;44.350;9.222;2022-10-13T10:06:21;101990.66;;;20.67;100.00
32324;BME280;25666;44.350;9.222;2022-10-13T10:08:59;101990.25;;;20.69;100.00
32324;BME280;25666;44.350;9.222;2022-10-13T10:14:11;101984.13;;;20.63;100.00
32324;BME280;25666;44.350;9.222;2022-10-13T10:16:44;101988.16;;;20.62;100.00
32324;BME280;25666;44.350;9.222;2022-10-13T10:19:19;101992.50;;;20.53;100.00
32324;BME280;25666;44.350;9.222;2022-10-13T10:21:58;101994.09;;;20.50;100.00
32324;BME280;25666;44.350;9.222;2022-10-13T10:27:16;101979.19;;;20.53;100.00
32324;BME280;25666;44.350;9.222;2022-10-13T10:29:49;101982.88;;;20.57;100.00
32324;BME280;25666;44.350;9.222;2022-10-13T10:32:20;101981.69;;;20.62;100.00
32324;BME280;25666;44.350;9.222;2022-10-13T10:34:53;101978.47;;;20.63;100.00
32324;BME280;25666;44.350;9.222;2022-10-13T10:37:54;101978.56;;;20.70;100.00
32324;BME280;25666;44.350;9.222;2022-10-13T10:45:27;101973.72;;;20.74;100.00
32324;BME280;25666;44.350;9.222;2022-10-13T10:47:59;101973.72;;;20.74;100.00
32324;BME280;25666;44.350;9.222;2022-10-13T10:50:27;101965.22;;;20.74;100.00
32324;BME280;25666;44.350;9.222;2022-10-13T10:53:00;101965.19;;;20.71;100.00
32324;BME280;25666;44.350;9.222;2022-10-13T10:55:45;101963.22;;;20.75;100.00
32324;BME280;25666;44.350;9.222;2022-10-13T10:58:38;101959.75;;;20.92;100.00
32324;BME280;25666;44.350;9.222;2022-10-13T11:04:15;101956.06;;;20.88;100.00
32324;BME280;25666;44.350;9.222;2022-10-13T11:06:49;101947.94;;;20.83;100.00
32324;BME280;25666;44.350;9.222;2022-10-13T11:15:00;101950.88;;;20.97;100.00
32324;BME280;25666;44.350;9.222;2022-10-13T11:17:28;101943.13;;;20.87;100.00
32324;BME280;25666;44.350;9.222;2022-10-13T11:19:55;101943.16;;;20.91;100.00
32324;BME280;25666;44.350;9.222;2022-10-13T11:22:28;101951.72;;;21.01;100.00
32324;BME280;25666;44.350;9.222;2022-10-13T11:24:59;101946.09;;;21.08;100.00
32324;BME280;25666;44.350;9.222;2022-10-13T11:27:26;101941.28;;;21.09;100.00
32324;BME280;25666;44.350;9.222;2022-10-13T11:30:02;101936.88;;;21.15;100.00
32324;BME280;25666;44.350;9.222;2022-10-13T11:51:37;101916.19;;;21.76;100.00
32324;BME280;25666;44.350;9.222;2022-10-13T11:56:52;101913.81;;;21.85;100.00
32324;BME280;25666;44.350;9.222;2022-10-13T11:59:30;101904.16;;;21.90;100.00
32324;BME280;25666;44.350;9.222;2022-10-13T12:01:58;101911.03;;;21.96;100.00
32324;BME280;25666;44.350;9.222;2022-10-13T12:04:26;101913.06;;;21.92;100.00
32324;BME280;25666;44.350;9.222;2022-10-13T12:06:55;101912.22;;;21.91;100.00
32324;BME280;25666;44.350;9.222;2022-10-13T12:09:21;101904.91;;;21.83;100.00
32324;BME280;25666;44.350;9.222;2022-10-13T12:11:56;101898.78;;;21.74;100.00
32324;BME280;25666;44.350;9.222;2022-10-13T12:14:34;101899.56;;;21.71;100.00
32324;BME280;25666;44.350;9.222;2022-10-13T12:17:01;101888.25;;;21.74;100.00
32324;BME280;25666;44.350;9.222;2022-10-13T12:19:30;101888.66;;;21.73;100.00
32324;BME280;25666;44.350;9.222;2022-10-13T12:22:00;101890.25;;;21.67;100.00
32324;BME280;25666;44.350;9.222;2022-10-13T12:24:28;101891.44;;;21.66;100.00
32324;BME280;25666;44.350;9.222;2022-10-13T12:26:55;101883.75;;;21.63;100.00
32324;BME280;25666;44.350;9.222;2022-10-13T12:29:26;101886.59;;;21.63;100.00
32324;BME280;25666;44.350;9.222;2022-10-13T12:31:53;101884.53;;;21.60;100.00
32324;BME280;25666;44.350;9.222;2022-10-13T12:34:29;101881.31;;;21.58;100.00
32324;BME280;25666;44.350;9.222;2022-10-13T12:37:03;101885.75;;;21.59;100.00
32324;BME280;25666;44.350;9.222;2022-10-13T12:39:30;101878.47;;;21.65;100.00
32324;BME280;25666;44.350;9.222;2022-10-13T12:41:58;101882.13;;;21.65;100.00
32324;BME280;25666;44.350;9.222;2022-10-13T12:44:27;101879.72;;;21.64;100.00
32324;BME280;25666;44.350;9.222;2022-10-13T12:46:58;101885.38;;;21.64;100.00
32324;BME280;25666;44.350;9.222;2022-10-13T12:49:28;101876.88;;;21.60;100.00
32324;BME280;25666;44.350;9.222;2022-10-13T12:54:35;101875.66;;;21.61;100.00
32324;BME280;25666;44.350;9.222;2022-10-13T12:57:17;101880.88;;;21.56;100.00
32324;BME280;25666;44.350;9.222;2022-10-13T12:59:43;101882.09;;;21.51;100.00
32324;BME280;25666;44.350;9.222;2022-10-13T13:02:26;101876.78;;;21.46;100.00
32324;BME280;25666;44.350;9.222;2022-10-13T13:04:52;101876.78;;;21.39;100.00
32324;BME280;25666;44.350;9.222;2022-10-13T13:07:31;101880.41;;;21.36;100.00
32324;BME280;25666;44.350;9.222;2022-10-13T13:12:32;101874.25;;;21.23;100.00
32324;BME280;25666;44.350;9.222;2022-10-13T13:15:36;101867.78;;;21.23;100.00
32324;BME280;25666;44.350;9.222;2022-10-13T13:18:40;101866.97;;;21.26;100.00
32324;BME280;25666;44.350;9.222;2022-10-13T13:21:08;101870.97;;;21.14;100.00
32324;BME280;25666;44.350;9.222;2022-10-13T13:23:39;101863.66;;;21.10;100.00
32324;BME280;25666;44.350;9.222;2022-10-13T13:28:45;101856.03;;;21.17;100.00
32324;BME280;25666;44.350;9.222;2022-10-13T13:31:13;101856.00;;;21.21;100.00
32324;BME280;25666;44.350;9.222;2022-10-13T13:33:39;101843.53;;;21.29;100.00
32324;BME280;25666;44.350;9.222;2022-10-13T13:36:13;101843.09;;;21.27;100.00
32324;BME280;25666;44.350;9.222;2022-10-13T13:38:42;101839.06;;;21.28;100.00
32324;BME280;25666;44.350;9.222;2022-10-13T13:41:09;101848.00;;;21.33;100.00
32324;BME280;25666;44.350;9.222;2022-10-13T13:43:36;101841.91;;;21.31;100.00
32324;BME280;25666;44.350;9.222;2022-10-13T13:46:03;101836.25;;;21.31;100.00
32324;BME280;25666;44.350;9.222;2022-10-13T13:48:29;101838.72;;;21.33;100.00
32324;BME280;25666;44.350;9.222;2022-10-13T13:50:56;101832.25;;;21.36;100.00
32324;BME280;25666;44.350;9.222;2022-10-13T13:53:21;101833.44;;;21.31;100.00
32324;BME280;25666;44.350;9.222;2022-10-13T13:55:47;101824.53;;;21.33;100.00
32324;BME280;25666;44.350;9.222;2022-10-13T13:58:16;101833.84;;;21.33;100.00
32324;BME280;25666;44.350;9.222;2022-10-13T14:00:42;101827.72;;;21.24;100.00
32324;BME280;25666;44.350;9.222;2022-10-13T14:03:07;101836.66;;;21.26;100.00
32324;BME280;25666;44.350;9.222;2022-10-13T14:05:37;101824.53;;;21.29;100.00
32324;BME280;25666;44.350;9.222;2022-10-13T14:08:04;101824.88;;;21.24;100.00
32324;BME280;25666;44.350;9.222;2022-10-13T14:10:29;101819.66;;;21.26;100.00
32324;BME280;25666;44.350;9.222;2022-10-13T14:12:55;101821.25;;;21.24;100.00